sensor_id;sensor_type;location;lat;lon;timestamp;P1;durP1;ratioP1;P2;durP2;ratioP2
16407;SDS011;8313;49.894;8.084;2023-04-07T00:01:01;10.70;;;6.70;;
16407;SDS011;8313;49.894;8.084;2023-04-07T00:03:27;9.70;;;6.50;;
16407;SDS011;8313;49.894;8.084;2023-04-07T00:05:52;8.80;;;6.73;;
16407;SDS011;8313;49.894;8.084;2023-04-07T00:08:18;9.20;;;7.20;;
16407;SDS011;8313;49.894;8.084;2023-04-07T00:10:44;10.43;;;6.70;;
16407;SDS011;8313;49.894;8.084;2023-04-07T00:13:10;11.17;;;7.20;;
16407;SDS011;8313;49.894;8.084;2023-04-07T00:15:36;10.43;;;6.33;;
16407;SDS011;8313;49.894;8.084;2023-04-07T00:18:02;7.10;;;5.83;;
16407;SDS011;8313;49.894;8.084;2023-04-07T00:20:28;9.77;;;6.87;;
16407;SDS011;8313;49.894;8.084;2023-04-07T00:22:53;10.80;;;7.53;;
16407;SDS011;8313;49.894;8.084;2023-04-07T00:25:19;11.73;;;8.00;;
16407;SDS011;8313;49.894;8.084;2023-04-07T00:27:45;11.50;;;7.60;;
16407;SDS011;8313;49.894;8.084;2023-04-07T00:30:11;11.53;;;7.33;;
16407;SDS011;8313;49.894;8.084;2023-04-07T00:32:36;12.07;;;8.03;;
16407;SDS011;8313;49.894;8.084;2023-04-07T00:35:03;7.83;;;6.17;;
16407;SDS011;8313;49.894;8.084;2023-04-07T00:37:29;7.60;;;6.47;;
16407;SDS011;8313;49.894;8.084;2023-04-07T00:39:55;10.67;;;7.30;;
16407;SDS011;8313;49.894;8.084;2023-04-07T00:42:22;9.00;;;6.90;;
16407;SDS011;8313;49.894;8.084;2023-04-07T00:44:47;9.13;;;6.73;;
16407;SDS011;8313;49.894;8.084;2023-04-07T00:47:13;14.10;;;7.57;;
16407;SDS011;8313;49.894;8.084;2023-04-07T00:49:39;9.50;;;6.43;;
16407;SDS011;8313;49.894;8.084;2023-04-07T00:52:05;10.10;;;7.57;;
16407;SDS011;8313;49.894;8.084;2023-04-07T00:54:35;7.53;;;6.00;;
16407;SDS011;8313;49.894;8.084;2023-04-07T00:57:02;10.83;;;6.57;;
16407;SDS011;8313;49.894;8.084;2023-04-07T00:59:28;9.57;;;6.03;;
16407;SDS011;8313;49.894;8.084;2023-04-07T01:02:07;12.03;;;6.47;;
16407;SDS011;8313;49.894;8.084;2023-04-07T01:07:23;9.50;;;7.23;;
16407;SDS011;8313;49.894;8.084;2023-04-07T01:10:04;9.70;;;6.83;;
16407;SDS011;8313;49.894;8.084;2023-04-07T01:12:44;8.17;;;6.67;;
16407;SDS011;8313;49.894;8.084;2023-04-07T01:15:21;9.20;;;7.43;;
16407;SDS011;8313;49.894;8.084;2023-04-07T01:17:54;11.60;;;8.17;;
16407;SDS011;8313;49.894;8.084;2023-04-07T01:20:25;11.93;;;7.77;;
16407;SDS011;8313;49.894;8.084;2023-04-07T01:22:58;9.40;;;7.47;;
16407;SDS011;8313;49.894;8.084;2023-04-07T01:28:45;10.90;;;7.70;;
16407;SDS011;8313;49.894;8.084;2023-04-07T01:31:25;9.87;;;6.20;;
16407;SDS011;8313;49.894;8.084;2023-04-07T01:33:51;11.23;;;7.50;;
16407;SDS011;8313;49.894;8.084;2023-04-07T01:36:21;11.60;;;7.00;;
16407;SDS011;8313;49.894;8.084;2023-04-07T01:38:48;11.73;;;7.67;;
16407;SDS011;8313;49.894;8.084;2023-04-07T01:41:15;10.57;;;7.27;;
16407;SDS011;8313;49.894;8.084;2023-04-07T01:43:42;10.37;;;7.00;;
16407;SDS011;8313;49.894;8.084;2023-04-07T01:46:09;9.60;;;6.50;;
16407;SDS011;8313;49.894;8.084;2023-04-07T01:48:35;9.93;;;7.60;;
16407;SDS011;8313;49.894;8.084;2023-04-07T01:51:03;8.97;;;7.47;;
16407;SDS011;8313;49.894;8.084;2023-04-07T01:53:30;10.73;;;7.17;;
16407;SDS011;8313;49.894;8.084;2023-04-07T01:55:56;11.90;;;8.30;;
16407;SDS011;8313;49.894;8.084;2023-04-07T01:58:22;11.00;;;7.33;;
16407;SDS011;8313;49.894;8.084;2023-04-07T02:00:48;9.20;;;7.37;;
16407;SDS011;8313;49.894;8.084;2023-04-07T02:03:19;11.77;;;7.13;;
16407;SDS011;8313;49.894;8.084;2023-04-07T02:05:53;13.60;;;8.70;;
16407;SDS011;8313;49.894;8.084;2023-04-07T02:08:25;12.03;;;8.23;;
16407;SDS011;8313;49.894;8.084;2023-04-07T02:10:53;10.47;;;7.50;;
16407;SDS011;8313;49.894;8.084;2023-04-07T02:13:22;11.63;;;8.00;;
16407;SDS011;8313;49.894;8.084;2023-04-07T02:15:49;11.70;;;7.63;;
16407;SDS011;8313;49.894;8.084;2023-04-07T02:18:17;12.03;;;8.73;;
16407;SDS011;8313;49.894;8.084;2023-04-07T02:20:44;11.37;;;7.23;;
16407;SDS011;8313;49.894;8.084;2023-04-07T02:23:11;8.60;;;7.10;;
16407;SDS011;8313;49.894;8.084;2023-04-07T02:25:37;12.50;;;8.30;;
16407;SDS011;8313;49.894;8.084;2023-04-07T02:28:03;9.90;;;6.83;;
16407;SDS011;8313;49.894;8.084;2023-04-07T02:30:31;12.27;;;8.20;;
16407;SDS011;8313;49.894;8.084;2023-04-07T02:32:57;11.90;;;7.50;;
16407;SDS011;8313;49.894;8.084;2023-04-07T02:35:23;10.00;;;7.20;;
16407;SDS011;8313;49.894;8.084;2023-04-07T02:37:49;9.17;;;7.47;;
16407;SDS011;8313;49.894;8.084;2023-04-07T02:40:15;10.67;;;7.53;;
16407;SDS011;8313;49.894;8.084;2023-04-07T02:42:41;12.67;;;8.27;;
16407;SDS011;8313;49.894;8.084;2023-04-07T02:45:07;10.80;;;7.60;;
16407;SDS011;8313;49.894;8.084;2023-04-07T02:47:35;11.43;;;7.60;;
16407;SDS011;8313;49.894;8.084;2023-04-07T02:50:02;11.03;;;7.80;;
16407;SDS011;8313;49.894;8.084;2023-04-07T02:52:28;11.40;;;8.07;;
16407;SDS011;8313;49.894;8.084;2023-04-07T02:54:54;10.17;;;7.97;;
16407;SDS011;8313;49.894;8.084;2023-04-07T02:57:23;10.43;;;8.33;;
16407;SDS011;8313;49.894;8.084;2023-04-07T02:59:52;13.67;;;9.03;;
16407;SDS011;8313;49.894;8.084;2023-04-07T03:02:20;11.53;;;8.17;;
16407;SDS011;8313;49.894;8.084;2023-04-07T03:04:45;11.10;;;7.53;;
16407;SDS011;8313;49.894;8.084;2023-04-07T03:07:11;11.77;;;8.53;;
16407;SDS011;8313;49.894;8.084;2023-04-07T03:09:37;12.03;;;7.77;;
16407;SDS011;8313;49.894;8.084;2023-04-07T03:12:03;13.77;;;9.00;;
16407;SDS011;8313;49.894;8.084;2023-04-07T03:14:32;12.10;;;8.40;;
16407;SDS011;8313;49.894;8.084;2023-04-07T03:17:00;13.63;;;8.70;;
16407;SDS011;8313;49.894;8.084;2023-04-07T03:19:25;12.17;;;9.17;;
16407;SDS011;8313;49.894;8.084;2023-04-07T03:21:51;16.47;;;8.43;;
16407;SDS011;8313;49.894;8.084;2023-04-07T03:24:17;13.27;;;8.70;;
16407;SDS011;8313;49.894;8.084;2023-04-07T03:26:44;11.77;;;8.17;;
16407;SDS011;8313;49.894;8.084;2023-04-07T03:29:22;12.20;;;8.40;;
16407;SDS011;8313;49.894;8.084;2023-04-07T03:31:47;12.80;;;8.67;;
16407;SDS011;8313;49.894;8.084;2023-04-07T03:34:16;11.53;;;7.97;;
16407;SDS011;8313;49.894;8.084;2023-04-07T03:36:42;12.77;;;8.47;;
16407;SDS011;8313;49.894;8.084;2023-04-07T03:39:07;10.13;;;8.50;;
16407;SDS011;8313;49.894;8.084;2023-04-07T03:41:33;11.67;;;7.90;;
16407;SDS011;8313;49.894;8.084;2023-04-07T03:43:59;12.60;;;9.03;;
16407;SDS011;8313;49.894;8.084;2023-04-07T03:46:25;13.27;;;7.20;;
16407;SDS011;8313;49.894;8.084;2023-04-07T03:48:52;12.20;;;8.57;;
16407;SDS011;8313;49.894;8.084;2023-04-07T03:51:19;12.23;;;7.13;;
16407;SDS011;8313;49.894;8.084;2023-04-07T03:53:48;12.17;;;7.90;;
16407;SDS011;8313;49.894;8.084;2023-04-07T03:56:36;12.03;;;8.30;;
16407;SDS011;8313;49.894;8.084;2023-04-07T03:59:03;11.73;;;8.50;;
16407;SDS011;8313;49.894;8.084;2023-04-07T04:01:33;15.10;;;8.77;;
16407;SDS011;8313;49.894;8.084;2023-04-07T04:04:06;10.07;;;7.80;;
16407;SDS011;8313;49.894;8.084;2023-04-07T04:06:31;9.27;;;7.10;;
16407;SDS011;8313;49.894;8.084;2023-04-07T04:09:06;9.70;;;7.00;;
16407;SDS011;8313;49.894;8.084;2023-04-07T04:11:35;11.30;;;7.40;;
16407;SDS011;8313;49.894;8.084;2023-04-07T04:14:03;13.27;;;7.93;;
16407;SDS011;8313;49.894;8.084;2023-04-07T04:16:29;15.83;;;8.90;;
16407;SDS011;8313;49.894;8.084;2023-04-07T04:18:59;12.77;;;8.50;;
16407;SDS011;8313;49.894;8.084;2023-04-07T04:21:28;9.60;;;7.40;;
16407;SDS011;8313;49.894;8.084;2023-04-07T04:23:54;10.07;;;7.50;;
16407;SDS011;8313;49.894;8.084;2023-04-07T04:26:20;11.47;;;7.63;;
16407;SDS011;8313;49.894;8.084;2023-04-07T04:28:50;11.70;;;8.00;;
16407;SDS011;8313;49.894;8.084;2023-04-07T04:31:18;13.60;;;8.70;;
16407;SDS011;8313;49.894;8.084;2023-04-07T04:33:44;14.20;;;8.13;;
16407;SDS011;8313;49.894;8.084;2023-04-07T04:36:10;11.30;;;7.70;;
16407;SDS011;8313;49.894;8.084;2023-04-07T04:38:37;13.07;;;8.63;;
16407;SDS011;8313;49.894;8.084;2023-04-07T04:41:10;10.30;;;7.53;;
16407;SDS011;8313;49.894;8.084;2023-04-07T04:43:36;14.53;;;9.50;;
16407;SDS011;8313;49.894;8.084;2023-04-07T04:46:03;12.90;;;8.47;;
16407;SDS011;8313;49.894;8.084;2023-04-07T04:48:34;13.20;;;8.40;;
16407;SDS011;8313;49.894;8.084;2023-04-07T04:51:02;14.00;;;7.70;;
16407;SDS011;8313;49.894;8.084;2023-04-07T04:53:29;13.50;;;8.77;;
16407;SDS011;8313;49.894;8.084;2023-04-07T04:55:58;9.70;;;7.67;;
16407;SDS011;8313;49.894;8.084;2023-04-07T04:58:47;13.50;;;8.57;;
16407;SDS011;8313;49.894;8.084;2023-04-07T05:01:20;13.77;;;8.57;;
16407;SDS011;8313;49.894;8.084;2023-04-07T05:03:52;13.83;;;9.57;;
16407;SDS011;8313;49.894;8.084;2023-04-07T05:06:28;15.47;;;9.13;;
16407;SDS011;8313;49.894;8.084;2023-04-07T05:08:57;12.73;;;8.30;;
16407;SDS011;8313;49.894;8.084;2023-04-07T05:11:28;13.30;;;7.97;;
16407;SDS011;8313;49.894;8.084;2023-04-07T05:13:54;13.60;;;8.60;;
16407;SDS011;8313;49.894;8.084;2023-04-07T05:16:21;14.73;;;8.83;;
16407;SDS011;8313;49.894;8.084;2023-04-07T05:18:48;11.87;;;7.20;;
16407;SDS011;8313;49.894;8.084;2023-04-07T05:21:13;12.13;;;8.03;;
16407;SDS011;8313;49.894;8.084;2023-04-07T05:23:39;14.40;;;9.00;;
16407;SDS011;8313;49.894;8.084;2023-04-07T05:26:06;15.63;;;9.43;;
16407;SDS011;8313;49.894;8.084;2023-04-07T05:28:33;12.77;;;7.97;;
16407;SDS011;8313;49.894;8.084;2023-04-07T05:31:03;14.17;;;9.63;;
16407;SDS011;8313;49.894;8.084;2023-04-07T05:33:31;13.67;;;9.13;;
16407;SDS011;8313;49.894;8.084;2023-04-07T05:35:58;14.30;;;8.37;;
16407;SDS011;8313;49.894;8.084;2023-04-07T05:38:23;12.33;;;8.20;;
16407;SDS011;8313;49.894;8.084;2023-04-07T05:40:52;13.60;;;8.07;;
16407;SDS011;8313;49.894;8.084;2023-04-07T05:43:23;13.03;;;8.83;;
16407;SDS011;8313;49.894;8.084;2023-04-07T05:45:49;13.07;;;8.57;;
16407;SDS011;8313;49.894;8.084;2023-04-07T05:48:16;13.40;;;8.70;;
16407;SDS011;8313;49.894;8.084;2023-04-07T05:50:45;16.50;;;9.80;;
16407;SDS011;8313;49.894;8.084;2023-04-07T05:53:14;14.53;;;9.60;;
16407;SDS011;8313;49.894;8.084;2023-04-07T05:55:43;13.50;;;8.20;;
16407;SDS011;8313;49.894;8.084;2023-04-07T05:58:14;10.90;;;8.67;;
16407;SDS011;8313;49.894;8.084;2023-04-07T06:00:45;15.37;;;9.47;;
16407;SDS011;8313;49.894;8.084;2023-04-07T06:03:15;12.50;;;8.27;;
16407;SDS011;8313;49.894;8.084;2023-04-07T06:06:02;12.33;;;7.97;;
16407;SDS011;8313;49.894;8.084;2023-04-07T06:08:28;14.63;;;8.03;;
16407;SDS011;8313;49.894;8.084;2023-04-07T06:10:54;12.20;;;8.27;;
16407;SDS011;8313;49.894;8.084;2023-04-07T06:13:20;13.93;;;9.00;;
16407;SDS011;8313;49.894;8.084;2023-04-07T06:15:46;14.17;;;8.93;;
16407;SDS011;8313;49.894;8.084;2023-04-07T06:18:11;15.13;;;9.60;;
16407;SDS011;8313;49.894;8.084;2023-04-07T06:20:38;12.60;;;9.30;;
16407;SDS011;8313;49.894;8.084;2023-04-07T06:23:03;18.50;;;9.70;;
16407;SDS011;8313;49.894;8.084;2023-04-07T06:25:29;13.13;;;9.27;;
16407;SDS011;8313;49.894;8.084;2023-04-07T06:27:55;12.43;;;9.03;;
16407;SDS011;8313;49.894;8.084;2023-04-07T06:30:21;20.67;;;11.50;;
16407;SDS011;8313;49.894;8.084;2023-04-07T06:32:47;16.03;;;10.20;;
16407;SDS011;8313;49.894;8.084;2023-04-07T06:35:13;16.80;;;9.60;;
16407;SDS011;8313;49.894;8.084;2023-04-07T06:37:38;14.70;;;9.47;;
16407;SDS011;8313;49.894;8.084;2023-04-07T06:40:05;13.07;;;9.67;;
16407;SDS011;8313;49.894;8.084;2023-04-07T06:42:32;14.03;;;9.47;;
16407;SDS011;8313;49.894;8.084;2023-04-07T06:45:08;14.20;;;9.97;;
16407;SDS011;8313;49.894;8.084;2023-04-07T06:47:34;18.17;;;11.00;;
16407;SDS011;8313;49.894;8.084;2023-04-07T06:49:59;14.83;;;9.63;;
16407;SDS011;8313;49.894;8.084;2023-04-07T06:52:25;15.33;;;9.77;;
16407;SDS011;8313;49.894;8.084;2023-04-07T06:54:51;17.00;;;10.93;;
16407;SDS011;8313;49.894;8.084;2023-04-07T06:57:16;15.50;;;10.20;;
16407;SDS011;8313;49.894;8.084;2023-04-07T06:59:42;16.70;;;10.40;;
16407;SDS011;8313;49.894;8.084;2023-04-07T07:02:08;18.60;;;11.07;;
16407;SDS011;8313;49.894;8.084;2023-04-07T07:04:33;17.50;;;10.67;;
16407;SDS011;8313;49.894;8.084;2023-04-07T07:06:59;18.67;;;10.73;;
16407;SDS011;8313;49.894;8.084;2023-04-07T07:09:25;14.90;;;9.93;;
16407;SDS011;8313;49.894;8.084;2023-04-07T07:11:51;11.27;;;8.07;;
16407;SDS011;8313;49.894;8.084;2023-04-07T07:14:17;13.70;;;8.90;;
16407;SDS011;8313;49.894;8.084;2023-04-07T07:16:43;16.10;;;10.30;;
16407;SDS011;8313;49.894;8.084;2023-04-07T07:19:08;12.20;;;8.63;;
16407;SDS011;8313;49.894;8.084;2023-04-07T07:21:34;15.20;;;8.23;;
16407;SDS011;8313;49.894;8.084;2023-04-07T07:24:00;17.00;;;8.27;;
16407;SDS011;8313;49.894;8.084;2023-04-07T07:26:26;10.60;;;7.73;;
16407;SDS011;8313;49.894;8.084;2023-04-07T07:28:51;12.50;;;9.03;;
16407;SDS011;8313;49.894;8.084;2023-04-07T07:31:17;13.13;;;8.40;;
16407;SDS011;8313;49.894;8.084;2023-04-07T07:33:43;14.17;;;8.50;;
16407;SDS011;8313;49.894;8.084;2023-04-07T07:36:10;13.80;;;8.17;;
16407;SDS011;8313;49.894;8.084;2023-04-07T07:38:36;11.57;;;8.33;;
16407;SDS011;8313;49.894;8.084;2023-04-07T07:41:01;10.50;;;7.67;;
16407;SDS011;8313;49.894;8.084;2023-04-07T07:43:27;9.20;;;6.50;;
16407;SDS011;8313;49.894;8.084;2023-04-07T07:45:53;9.27;;;6.90;;
16407;SDS011;8313;49.894;8.084;2023-04-07T07:48:19;13.83;;;7.53;;
16407;SDS011;8313;49.894;8.084;2023-04-07T07:50:45;15.63;;;7.57;;
16407;SDS011;8313;49.894;8.084;2023-04-07T07:53:11;12.07;;;7.07;;
16407;SDS011;8313;49.894;8.084;2023-04-07T07:55:36;12.30;;;7.17;;
16407;SDS011;8313;49.894;8.084;2023-04-07T07:58:02;10.13;;;6.53;;
16407;SDS011;8313;49.894;8.084;2023-04-07T08:00:28;9.10;;;6.60;;
16407;SDS011;8313;49.894;8.084;2023-04-07T08:02:53;11.47;;;7.83;;
16407;SDS011;8313;49.894;8.084;2023-04-07T08:05:19;10.43;;;6.90;;
16407;SDS011;8313;49.894;8.084;2023-04-07T08:07:45;11.67;;;7.27;;
16407;SDS011;8313;49.894;8.084;2023-04-07T08:10:11;11.37;;;7.03;;
16407;SDS011;8313;49.894;8.084;2023-04-07T08:12:37;10.27;;;6.80;;
16407;SDS011;8313;49.894;8.084;2023-04-07T08:15:03;9.20;;;6.53;;
16407;SDS011;8313;49.894;8.084;2023-04-07T08:17:31;13.63;;;7.70;;
16407;SDS011;8313;49.894;8.084;2023-04-07T08:19:57;8.73;;;6.00;;
16407;SDS011;8313;49.894;8.084;2023-04-07T08:22:23;8.13;;;6.20;;
16407;SDS011;8313;49.894;8.084;2023-04-07T08:24:48;9.87;;;6.63;;
16407;SDS011;8313;49.894;8.084;2023-04-07T08:27:14;11.03;;;7.83;;
16407;SDS011;8313;49.894;8.084;2023-04-07T08:29:40;11.40;;;5.73;;
16407;SDS011;8313;49.894;8.084;2023-04-07T08:32:05;9.77;;;6.80;;
16407;SDS011;8313;49.894;8.084;2023-04-07T08:34:31;7.53;;;5.90;;
16407;SDS011;8313;49.894;8.084;2023-04-07T08:36:56;7.27;;;5.23;;
16407;SDS011;8313;49.894;8.084;2023-04-07T08:39:22;9.47;;;5.37;;
16407;SDS011;8313;49.894;8.084;2023-04-07T08:41:49;7.10;;;5.47;;
16407;SDS011;8313;49.894;8.084;2023-04-07T08:44:15;7.60;;;5.57;;
16407;SDS011;8313;49.894;8.084;2023-04-07T08:46:42;6.90;;;5.23;;
16407;SDS011;8313;49.894;8.084;2023-04-07T08:49:08;7.97;;;5.10;;
16407;SDS011;8313;49.894;8.084;2023-04-07T08:51:36;6.93;;;5.20;;
16407;SDS011;8313;49.894;8.084;2023-04-07T08:56:33;5.10;;;4.43;;
16407;SDS011;8313;49.894;8.084;2023-04-07T08:59:05;4.97;;;4.30;;
16407;SDS011;8313;49.894;8.084;2023-04-07T09:01:33;6.20;;;4.83;;
16407;SDS011;8313;49.894;8.084;2023-04-07T09:04:01;5.47;;;4.40;;
16407;SDS011;8313;49.894;8.084;2023-04-07T09:06:31;9.90;;;4.40;;
16407;SDS011;8313;49.894;8.084;2023-04-07T09:08:58;6.03;;;4.90;;
16407;SDS011;8313;49.894;8.084;2023-04-07T09:11:28;6.50;;;5.30;;
16407;SDS011;8313;49.894;8.084;2023-04-07T09:13:55;6.80;;;5.40;;
16407;SDS011;8313;49.894;8.084;2023-04-07T09:16:21;7.10;;;4.57;;
16407;SDS011;8313;49.894;8.084;2023-04-07T09:18:51;5.77;;;4.20;;
16407;SDS011;8313;49.894;8.084;2023-04-07T09:21:17;4.73;;;4.20;;
16407;SDS011;8313;49.894;8.084;2023-04-07T09:23:44;7.60;;;4.73;;
16407;SDS011;8313;49.894;8.084;2023-04-07T09:28:46;6.03;;;3.83;;
16407;SDS011;8313;49.894;8.084;2023-04-07T09:31:14;4.93;;;3.80;;
16407;SDS011;8313;49.894;8.084;2023-04-07T09:33:41;6.53;;;3.60;;
16407;SDS011;8313;49.894;8.084;2023-04-07T09:36:07;6.97;;;5.07;;
16407;SDS011;8313;49.894;8.084;2023-04-07T09:38:39;6.30;;;3.50;;
16407;SDS011;8313;49.894;8.084;2023-04-07T09:41:09;6.63;;;4.20;;
16407;SDS011;8313;49.894;8.084;2023-04-07T09:43:36;6.60;;;4.80;;
16407;SDS011;8313;49.894;8.084;2023-04-07T09:46:07;5.20;;;4.00;;
16407;SDS011;8313;49.894;8.084;2023-04-07T09:48:32;4.80;;;4.27;;
16407;SDS011;8313;49.894;8.084;2023-04-07T09:53:56;7.77;;;4.77;;
16407;SDS011;8313;49.894;8.084;2023-04-07T09:56:22;5.93;;;4.73;;
16407;SDS011;8313;49.894;8.084;2023-04-07T09:58:48;6.93;;;5.20;;
16407;SDS011;8313;49.894;8.084;2023-04-07T10:01:17;7.20;;;5.00;;
16407;SDS011;8313;49.894;8.084;2023-04-07T10:03:44;10.00;;;4.97;;
16407;SDS011;8313;49.894;8.084;2023-04-07T10:06:11;7.00;;;4.43;;
16407;SDS011;8313;49.894;8.084;2023-04-07T10:08:37;7.50;;;4.10;;
16407;SDS011;8313;49.894;8.084;2023-04-07T10:11:06;4.73;;;4.00;;
16407;SDS011;8313;49.894;8.084;2023-04-07T10:13:32;5.70;;;4.40;;
16407;SDS011;8313;49.894;8.084;2023-04-07T10:16:01;6.23;;;4.43;;
16407;SDS011;8313;49.894;8.084;2023-04-07T10:18:30;4.50;;;3.30;;
16407;SDS011;8313;49.894;8.084;2023-04-07T10:21:00;5.17;;;4.00;;
16407;SDS011;8313;49.894;8.084;2023-04-07T10:26:16;6.33;;;4.10;;
16407;SDS011;8313;49.894;8.084;2023-04-07T10:28:45;5.30;;;4.10;;
16407;SDS011;8313;49.894;8.084;2023-04-07T10:31:14;5.23;;;4.10;;
16407;SDS011;8313;49.894;8.084;2023-04-07T10:33:44;6.20;;;4.30;;
16407;SDS011;8313;49.894;8.084;2023-04-07T10:36:18;6.33;;;3.60;;
16407;SDS011;8313;49.894;8.084;2023-04-07T10:41:42;6.70;;;3.40;;
16407;SDS011;8313;49.894;8.084;2023-04-07T10:44:09;3.57;;;3.23;;
16407;SDS011;8313;49.894;8.084;2023-04-07T10:49:21;5.00;;;3.40;;
16407;SDS011;8313;49.894;8.084;2023-04-07T10:54:40;3.70;;;3.00;;
16407;SDS011;8313;49.894;8.084;2023-04-07T10:59:39;5.17;;;3.40;;
16407;SDS011;8313;49.894;8.084;2023-04-07T11:04:40;5.80;;;4.33;;
16407;SDS011;8313;49.894;8.084;2023-04-07T11:07:07;4.97;;;4.17;;
16407;SDS011;8313;49.894;8.084;2023-04-07T11:09:33;9.07;;;8.13;;
16407;SDS011;8313;49.894;8.084;2023-04-07T11:11:59;8.97;;;8.17;;
16407;SDS011;8313;49.894;8.084;2023-04-07T11:14:25;13.50;;;12.47;;
16407;SDS011;8313;49.894;8.084;2023-04-07T11:16:55;10.60;;;9.60;;
16407;SDS011;8313;49.894;8.084;2023-04-07T11:19:21;9.47;;;8.67;;
16407;SDS011;8313;49.894;8.084;2023-04-07T11:21:47;8.93;;;8.13;;
16407;SDS011;8313;49.894;8.084;2023-04-07T11:26:58;9.70;;;8.90;;
16407;SDS011;8313;49.894;8.084;2023-04-07T11:29:30;10.43;;;9.43;;
16407;SDS011;8313;49.894;8.084;2023-04-07T11:32:00;15.27;;;13.93;;
16407;SDS011;8313;49.894;8.084;2023-04-07T11:34:29;31.33;;;28.40;;
16407;SDS011;8313;49.894;8.084;2023-04-07T11:37:21;45.90;;;41.80;;
16407;SDS011;8313;49.894;8.084;2023-04-07T11:39:55;39.03;;;35.20;;
16407;SDS011;8313;49.894;8.084;2023-04-07T11:42:34;63.30;;;57.70;;
16407;SDS011;8313;49.894;8.084;2023-04-07T11:45:01;48.90;;;44.30;;
16407;SDS011;8313;49.894;8.084;2023-04-07T11:47:37;38.30;;;35.00;;
16407;SDS011;8313;49.894;8.084;2023-04-07T11:50:04;18.07;;;16.23;;
16407;SDS011;8313;49.894;8.084;2023-04-07T11:52:44;16.93;;;15.40;;
16407;SDS011;8313;49.894;8.084;2023-04-07T11:57:48;7.03;;;5.03;;
16407;SDS011;8313;49.894;8.084;2023-04-07T12:00:18;5.37;;;4.77;;
16407;SDS011;8313;49.894;8.084;2023-04-07T12:02:44;5.23;;;4.70;;
16407;SDS011;8313;49.894;8.084;2023-04-07T12:05:10;5.37;;;4.87;;
16407;SDS011;8313;49.894;8.084;2023-04-07T12:07:37;7.03;;;4.57;;
16407;SDS011;8313;49.894;8.084;2023-04-07T12:10:19;4.17;;;3.00;;
16407;SDS011;8313;49.894;8.084;2023-04-07T12:12:49;4.53;;;2.97;;
16407;SDS011;8313;49.894;8.084;2023-04-07T12:15:15;3.63;;;3.07;;
16407;SDS011;8313;49.894;8.084;2023-04-07T12:17:44;5.07;;;3.27;;
16407;SDS011;8313;49.894;8.084;2023-04-07T12:20:12;4.30;;;3.53;;
16407;SDS011;8313;49.894;8.084;2023-04-07T12:22:39;4.47;;;3.90;;
16407;SDS011;8313;49.894;8.084;2023-04-07T12:25:05;3.97;;;3.47;;
16407;SDS011;8313;49.894;8.084;2023-04-07T12:27:31;4.27;;;3.57;;
16407;SDS011;8313;49.894;8.084;2023-04-07T12:29:57;4.70;;;3.30;;
16407;SDS011;8313;49.894;8.084;2023-04-07T12:32:23;3.23;;;2.73;;
16407;SDS011;8313;49.894;8.084;2023-04-07T12:34:49;4.23;;;3.03;;
16407;SDS011;8313;49.894;8.084;2023-04-07T12:37:15;4.10;;;3.37;;
16407;SDS011;8313;49.894;8.084;2023-04-07T12:39:41;5.73;;;3.80;;
16407;SDS011;8313;49.894;8.084;2023-04-07T12:42:07;5.50;;;3.50;;
16407;SDS011;8313;49.894;8.084;2023-04-07T12:44:36;5.00;;;3.30;;
16407;SDS011;8313;49.894;8.084;2023-04-07T12:47:02;5.80;;;3.67;;
16407;SDS011;8313;49.894;8.084;2023-04-07T12:49:27;3.70;;;3.20;;
16407;SDS011;8313;49.894;8.084;2023-04-07T12:51:53;5.60;;;3.53;;
16407;SDS011;8313;49.894;8.084;2023-04-07T12:54:19;4.00;;;3.50;;
16407;SDS011;8313;49.894;8.084;2023-04-07T12:56:46;2.93;;;2.63;;
16407;SDS011;8313;49.894;8.084;2023-04-07T12:59:11;4.17;;;3.10;;
16407;SDS011;8313;49.894;8.084;2023-04-07T13:01:38;3.50;;;2.90;;
16407;SDS011;8313;49.894;8.084;2023-04-07T13:04:04;4.40;;;3.57;;
16407;SDS011;8313;49.894;8.084;2023-04-07T13:06:30;3.50;;;3.00;;
16407;SDS011;8313;49.894;8.084;2023-04-07T13:08:57;3.53;;;3.00;;
16407;SDS011;8313;49.894;8.084;2023-04-07T13:11:23;4.10;;;3.20;;
16407;SDS011;8313;49.894;8.084;2023-04-07T13:13:48;4.40;;;2.73;;
16407;SDS011;8313;49.894;8.084;2023-04-07T13:16:14;4.70;;;3.47;;
16407;SDS011;8313;49.894;8.084;2023-04-07T13:18:40;3.80;;;2.83;;
16407;SDS011;8313;49.894;8.084;2023-04-07T13:21:06;3.67;;;2.53;;
16407;SDS011;8313;49.894;8.084;2023-04-07T13:23:32;4.10;;;3.07;;
16407;SDS011;8313;49.894;8.084;2023-04-07T13:25:57;4.40;;;2.87;;
16407;SDS011;8313;49.894;8.084;2023-04-07T13:28:23;4.47;;;2.67;;
16407;SDS011;8313;49.894;8.084;2023-04-07T13:30:49;2.50;;;2.23;;
16407;SDS011;8313;49.894;8.084;2023-04-07T13:33:14;3.83;;;3.20;;
16407;SDS011;8313;49.894;8.084;2023-04-07T13:35:40;5.03;;;3.00;;
16407;SDS011;8313;49.894;8.084;2023-04-07T13:38:06;2.63;;;2.40;;
16407;SDS011;8313;49.894;8.084;2023-04-07T13:40:31;3.00;;;2.57;;
16407;SDS011;8313;49.894;8.084;2023-04-07T13:42:57;6.30;;;3.23;;
16407;SDS011;8313;49.894;8.084;2023-04-07T13:45:24;4.50;;;2.73;;
16407;SDS011;8313;49.894;8.084;2023-04-07T13:47:50;3.97;;;2.90;;
16407;SDS011;8313;49.894;8.084;2023-04-07T13:50:15;4.00;;;2.57;;
16407;SDS011;8313;49.894;8.084;2023-04-07T13:52:41;4.23;;;3.00;;
16407;SDS011;8313;49.894;8.084;2023-04-07T13:55:07;6.57;;;2.57;;
16407;SDS011;8313;49.894;8.084;2023-04-07T13:57:33;3.10;;;2.70;;
16407;SDS011;8313;49.894;8.084;2023-04-07T13:59:58;4.50;;;3.10;;
16407;SDS011;8313;49.894;8.084;2023-04-07T14:02:24;4.00;;;3.23;;
16407;SDS011;8313;49.894;8.084;2023-04-07T14:04:52;3.37;;;2.47;;
16407;SDS011;8313;49.894;8.084;2023-04-07T14:07:18;3.30;;;3.00;;
16407;SDS011;8313;49.894;8.084;2023-04-07T14:09:43;5.47;;;2.97;;
16407;SDS011;8313;49.894;8.084;2023-04-07T14:12:10;4.10;;;3.10;;
16407;SDS011;8313;49.894;8.084;2023-04-07T14:14:36;4.80;;;3.10;;
16407;SDS011;8313;49.894;8.084;2023-04-07T14:17:02;3.80;;;2.50;;
16407;SDS011;8313;49.894;8.084;2023-04-07T14:19:28;4.70;;;2.60;;
16407;SDS011;8313;49.894;8.084;2023-04-07T14:21:54;4.03;;;2.87;;
16407;SDS011;8313;49.894;8.084;2023-04-07T14:24:19;5.93;;;3.10;;
16407;SDS011;8313;49.894;8.084;2023-04-07T14:26:45;5.70;;;3.07;;
16407;SDS011;8313;49.894;8.084;2023-04-07T14:29:12;4.33;;;2.80;;
16407;SDS011;8313;49.894;8.084;2023-04-07T14:31:38;3.90;;;2.70;;
16407;SDS011;8313;49.894;8.084;2023-04-07T14:34:03;3.57;;;3.00;;
16407;SDS011;8313;49.894;8.084;2023-04-07T14:36:30;6.60;;;3.20;;
16407;SDS011;8313;49.894;8.084;2023-04-07T14:38:56;5.10;;;2.90;;
16407;SDS011;8313;49.894;8.084;2023-04-07T14:41:25;3.63;;;2.37;;
16407;SDS011;8313;49.894;8.084;2023-04-07T14:43:51;3.73;;;2.93;;
16407;SDS011;8313;49.894;8.084;2023-04-07T14:46:21;4.80;;;2.60;;
16407;SDS011;8313;49.894;8.084;2023-04-07T14:48:52;7.40;;;3.50;;
16407;SDS011;8313;49.894;8.084;2023-04-07T14:51:18;5.60;;;3.17;;
16407;SDS011;8313;49.894;8.084;2023-04-07T14:53:45;5.43;;;3.10;;
16407;SDS011;8313;49.894;8.084;2023-04-07T14:56:11;3.63;;;2.67;;
16407;SDS011;8313;49.894;8.084;2023-04-07T14:58:37;4.40;;;3.10;;
16407;SDS011;8313;49.894;8.084;2023-04-07T15:01:05;3.33;;;2.57;;
16407;SDS011;8313;49.894;8.084;2023-04-07T15:03:31;4.77;;;3.10;;
16407;SDS011;8313;49.894;8.084;2023-04-07T15:05:57;3.40;;;2.53;;
16407;SDS011;8313;49.894;8.084;2023-04-07T15:08:23;6.83;;;3.30;;
16407;SDS011;8313;49.894;8.084;2023-04-07T15:10:49;3.30;;;2.50;;
16407;SDS011;8313;49.894;8.084;2023-04-07T15:13:14;3.17;;;2.37;;
16407;SDS011;8313;49.894;8.084;2023-04-07T15:15:40;5.50;;;2.70;;
16407;SDS011;8313;49.894;8.084;2023-04-07T15:18:06;2.80;;;2.00;;
16407;SDS011;8313;49.894;8.084;2023-04-07T15:20:31;2.50;;;2.13;;
16407;SDS011;8313;49.894;8.084;2023-04-07T15:22:58;2.93;;;2.20;;
16407;SDS011;8313;49.894;8.084;2023-04-07T15:25:26;3.00;;;2.20;;
16407;SDS011;8313;49.894;8.084;2023-04-07T15:27:52;2.10;;;1.87;;
16407;SDS011;8313;49.894;8.084;2023-04-07T15:30:18;2.20;;;1.70;;